Michael S — WDE9794 — position and weather

sailwx.info

Track history (hours):
 
Tides and Currents Weather Stations Pressure Air Temp Water Temp Dewpoint Dewpoint Depression Visibility Wind Speed Wind Dir Waves Ship Positions

Michael S

Owner: Bisso Tow Boats Inc., New Orleans, LA. More information available from US FCC via Universal Licensing System and Coast Guard Vessel Documentation Center.

Last reported at 2016-Sep-21 19:18 UTC. Time now 2016-Sep-26 15:40 UTC.
Position N 29°56' W 089°60'.

Length 33 m; draft 3 m.

Type: Towing. MMSI: 367413700.

Date/timePositionNaut miles runAvg speedWind from/ knotsBaromVisibWave heightAir tempDewpointWater temp
2016-Sep-21 19:18N 29°56' W 089°60'7 0.3
2016-Sep-20 17:17N 29°56' W 090°08'8 0.2
2016-Sep-19 07:22N 29°56' W 089°59'3 0.1
2016-Sep-17 20:32N 29°57' W 090°02'5 2.2
2016-Sep-17 18:26N 29°55' W 090°06'5 0.8
2016-Sep-17 12:30N 29°55' W 090°12'0 0.0
2016-Sep-17 10:33N 29°55' W 090°12'0 0.1
2016-Sep-17 09:33N 29°55' W 090°12'0 0.1
2016-Sep-17 08:32N 29°55' W 090°12'0 0.0
2016-Sep-17 07:32N 29°55' W 090°12'1 0.3
2016-Sep-17 05:33N 29°55' W 090°12'2 0.1
2016-Sep-16 02:34N 29°57' W 090°14'8 3.6
2016-Sep-16 00:26N 29°55' W 090°05'0 0.1
2016-Sep-15 22:30N 29°55' W 090°05'3 0.3
2016-Sep-15 11:11N 29°57' W 090°03'  
Track history (hours):
 
Tides and Currents Weather Stations Pressure Air Temp Water Temp Dewpoint Dewpoint Depression Visibility Wind Speed Wind Dir Waves Ship Positions

Michael S

Owner: Bisso Tow Boats Inc., New Orleans, LA. More information available from US FCC via Universal Licensing System and Coast Guard Vessel Documentation Center.

Last reported at 2016-Sep-21 19:18 UTC. Time now 2016-Sep-26 15:40 UTC.
Position N 29°56' W 089°60'.

Length 33 m; draft 3 m.

Type: Towing. MMSI: 367413700.

Date/timePositionNaut miles runAvg speedWind from/ knotsBaromVisibWave heightAir tempDewpointWater temp
2016-Sep-21 19:18N 29°56' W 089°60'7 0.3
2016-Sep-20 17:17N 29°56' W 090°08'8 0.2
2016-Sep-19 07:22N 29°56' W 089°59'3 0.1
2016-Sep-17 20:32N 29°57' W 090°02'5 2.2
2016-Sep-17 18:26N 29°55' W 090°06'5 0.8
2016-Sep-17 12:30N 29°55' W 090°12'0 0.0
2016-Sep-17 10:33N 29°55' W 090°12'0 0.1
2016-Sep-17 09:33N 29°55' W 090°12'0 0.1
2016-Sep-17 08:32N 29°55' W 090°12'0 0.0
2016-Sep-17 07:32N 29°55' W 090°12'1 0.3
2016-Sep-17 05:33N 29°55' W 090°12'2 0.1
2016-Sep-16 02:34N 29°57' W 090°14'8 3.6
2016-Sep-16 00:26N 29°55' W 090°05'0 0.1
2016-Sep-15 22:30N 29°55' W 090°05'3 0.3
2016-Sep-15 11:11N 29°57' W 090°03'  

Dump ship's entire track history